sensor_id;sensor_type;location;lat;lon;timestamp;temperature;humidity
24402;DHT22;12539;48.808;11.292;2023-08-01T00:00:02;20.10;87.90
24402;DHT22;12539;48.808;11.292;2023-08-01T00:02:28;20.00;88.30
24402;DHT22;12539;48.808;11.292;2023-08-01T00:04:54;20.00;88.20
24402;DHT22;12539;48.808;11.292;2023-08-01T00:07:19;20.00;88.30
24402;DHT22;12539;48.808;11.292;2023-08-01T00:09:45;20.00;88.50
24402;DHT22;12539;48.808;11.292;2023-08-01T00:12:10;20.00;88.70
24402;DHT22;12539;48.808;11.292;2023-08-01T00:14:36;20.00;89.00
24402;DHT22;12539;48.808;11.292;2023-08-01T00:17:02;20.00;89.00
24402;DHT22;12539;48.808;11.292;2023-08-01T00:19:27;20.00;89.00
24402;DHT22;12539;48.808;11.292;2023-08-01T00:21:53;20.00;89.00
24402;DHT22;12539;48.808;11.292;2023-08-01T00:24:18;20.00;89.00
24402;DHT22;12539;48.808;11.292;2023-08-01T00:26:44;20.10;89.10
24402;DHT22;12539;48.808;11.292;2023-08-01T00:29:09;20.10;89.10
24402;DHT22;12539;48.808;11.292;2023-08-01T00:31:35;20.10;89.10
24402;DHT22;12539;48.808;11.292;2023-08-01T00:34:00;20.10;89.10
24402;DHT22;12539;48.808;11.292;2023-08-01T00:36:26;20.20;89.10
24402;DHT22;12539;48.808;11.292;2023-08-01T00:38:51;20.20;89.10
24402;DHT22;12539;48.808;11.292;2023-08-01T00:41:17;20.20;89.10
24402;DHT22;12539;48.808;11.292;2023-08-01T00:43:42;20.20;89.00
24402;DHT22;12539;48.808;11.292;2023-08-01T00:46:08;20.20;89.00
24402;DHT22;12539;48.808;11.292;2023-08-01T00:48:34;20.20;89.10
24402;DHT22;12539;48.808;11.292;2023-08-01T00:50:59;20.30;89.00
24402;DHT22;12539;48.808;11.292;2023-08-01T00:53:26;20.30;89.10
24402;DHT22;12539;48.808;11.292;2023-08-01T00:55:52;20.20;89.00
24402;DHT22;12539;48.808;11.292;2023-08-01T00:58:18;20.20;89.00
24402;DHT22;12539;48.808;11.292;2023-08-01T01:00:45;20.20;89.10
24402;DHT22;12539;48.808;11.292;2023-08-01T01:03:10;20.20;89.20
24402;DHT22;12539;48.808;11.292;2023-08-01T01:05:36;20.20;89.30
24402;DHT22;12539;48.808;11.292;2023-08-01T01:08:04;20.20;89.30
24402;DHT22;12539;48.808;11.292;2023-08-01T01:10:33;20.20;89.30
24402;DHT22;12539;48.808;11.292;2023-08-01T01:12:59;20.20;89.20
24402;DHT22;12539;48.808;11.292;2023-08-01T01:15:24;20.20;89.30
24402;DHT22;12539;48.808;11.292;2023-08-01T01:17:51;20.20;89.30
24402;DHT22;12539;48.808;11.292;2023-08-01T01:20:22;20.20;89.50
24402;DHT22;12539;48.808;11.292;2023-08-01T01:22:48;20.20;90.00
24402;DHT22;12539;48.808;11.292;2023-08-01T01:25:14;20.10;90.00
24402;DHT22;12539;48.808;11.292;2023-08-01T01:27:40;20.10;90.40
24402;DHT22;12539;48.808;11.292;2023-08-01T01:30:06;20.00;90.60
24402;DHT22;12539;48.808;11.292;2023-08-01T01:32:32;20.00;90.90
24402;DHT22;12539;48.808;11.292;2023-08-01T01:34:58;19.90;90.80
24402;DHT22;12539;48.808;11.292;2023-08-01T01:37:24;19.90;91.00
24402;DHT22;12539;48.808;11.292;2023-08-01T01:39:49;20.00;91.10
24402;DHT22;12539;48.808;11.292;2023-08-01T01:42:15;20.00;91.00
24402;DHT22;12539;48.808;11.292;2023-08-01T01:44:40;20.00;91.10
24402;DHT22;12539;48.808;11.292;2023-08-01T01:47:06;20.00;91.00
24402;DHT22;12539;48.808;11.292;2023-08-01T01:49:32;20.00;90.90
24402;DHT22;12539;48.808;11.292;2023-08-01T01:51:57;20.10;90.90
24402;DHT22;12539;48.808;11.292;2023-08-01T01:54:23;20.10;90.80
24402;DHT22;12539;48.808;11.292;2023-08-01T01:56:48;20.10;90.80
24402;DHT22;12539;48.808;11.292;2023-08-01T01:59:14;20.10;90.80
24402;DHT22;12539;48.808;11.292;2023-08-01T02:01:39;20.10;90.80
24402;DHT22;12539;48.808;11.292;2023-08-01T02:04:05;20.10;90.90
24402;DHT22;12539;48.808;11.292;2023-08-01T02:06:30;20.10;90.80
24402;DHT22;12539;48.808;11.292;2023-08-01T02:08:56;20.10;90.80
24402;DHT22;12539;48.808;11.292;2023-08-01T02:11:21;20.10;90.80
24402;DHT22;12539;48.808;11.292;2023-08-01T02:13:47;20.10;91.20
24402;DHT22;12539;48.808;11.292;2023-08-01T02:16:12;20.20;90.80
24402;DHT22;12539;48.808;11.292;2023-08-01T02:18:38;20.20;90.80
24402;DHT22;12539;48.808;11.292;2023-08-01T02:21:04;20.20;90.80
24402;DHT22;12539;48.808;11.292;2023-08-01T02:23:29;20.20;90.80
24402;DHT22;12539;48.808;11.292;2023-08-01T02:25:55;20.20;90.80
24402;DHT22;12539;48.808;11.292;2023-08-01T02:28:20;20.20;90.80
24402;DHT22;12539;48.808;11.292;2023-08-01T02:30:46;20.20;90.80
24402;DHT22;12539;48.808;11.292;2023-08-01T02:33:11;20.20;90.80
24402;DHT22;12539;48.808;11.292;2023-08-01T02:35:37;20.20;90.90
24402;DHT22;12539;48.808;11.292;2023-08-01T02:38:03;20.20;91.00
24402;DHT22;12539;48.808;11.292;2023-08-01T02:40:28;20.10;91.10
24402;DHT22;12539;48.808;11.292;2023-08-01T02:42:54;20.10;91.20
24402;DHT22;12539;48.808;11.292;2023-08-01T02:45:19;20.10;91.20
24402;DHT22;12539;48.808;11.292;2023-08-01T02:47:45;20.10;91.10
24402;DHT22;12539;48.808;11.292;2023-08-01T02:50:10;20.20;91.20
24402;DHT22;12539;48.808;11.292;2023-08-01T02:52:36;20.20;91.10
24402;DHT22;12539;48.808;11.292;2023-08-01T02:55:02;20.20;91.10
24402;DHT22;12539;48.808;11.292;2023-08-01T02:57:27;20.20;91.10
24402;DHT22;12539;48.808;11.292;2023-08-01T02:59:53;20.20;91.10
24402;DHT22;12539;48.808;11.292;2023-08-01T03:02:19;20.20;91.10
24402;DHT22;12539;48.808;11.292;2023-08-01T03:04:44;20.20;91.10
24402;DHT22;12539;48.808;11.292;2023-08-01T03:07:10;20.20;91.20
24402;DHT22;12539;48.808;11.292;2023-08-01T03:09:35;20.20;91.30
24402;DHT22;12539;48.808;11.292;2023-08-01T03:12:01;20.20;91.40
24402;DHT22;12539;48.808;11.292;2023-08-01T03:14:26;20.10;91.40
24402;DHT22;12539;48.808;11.292;2023-08-01T03:16:52;20.10;91.50
24402;DHT22;12539;48.808;11.292;2023-08-01T03:19:17;20.10;91.50
24402;DHT22;12539;48.808;11.292;2023-08-01T03:21:43;20.10;91.40
24402;DHT22;12539;48.808;11.292;2023-08-01T03:24:09;20.10;91.50
24402;DHT22;12539;48.808;11.292;2023-08-01T03:26:35;20.10;91.50
24402;DHT22;12539;48.808;11.292;2023-08-01T03:29:01;20.10;91.50
24402;DHT22;12539;48.808;11.292;2023-08-01T03:31:26;20.10;91.50
24402;DHT22;12539;48.808;11.292;2023-08-01T03:33:52;20.10;91.50
24402;DHT22;12539;48.808;11.292;2023-08-01T03:36:18;20.10;91.50
24402;DHT22;12539;48.808;11.292;2023-08-01T03:38:43;20.00;91.40
24402;DHT22;12539;48.808;11.292;2023-08-01T03:41:09;19.90;91.80
24402;DHT22;12539;48.808;11.292;2023-08-01T03:43:34;19.70;92.10
24402;DHT22;12539;48.808;11.292;2023-08-01T03:46:00;19.60;92.40
24402;DHT22;12539;48.808;11.292;2023-08-01T03:48:26;19.60;92.70
24402;DHT22;12539;48.808;11.292;2023-08-01T03:50:51;19.60;92.80
24402;DHT22;12539;48.808;11.292;2023-08-01T03:53:17;19.50;92.90
24402;DHT22;12539;48.808;11.292;2023-08-01T03:55:43;19.50;93.00
24402;DHT22;12539;48.808;11.292;2023-08-01T03:58:09;19.40;93.30
24402;DHT22;12539;48.808;11.292;2023-08-01T04:00:34;19.30;93.70
24402;DHT22;12539;48.808;11.292;2023-08-01T04:03:00;19.20;93.90
24402;DHT22;12539;48.808;11.292;2023-08-01T04:05:27;19.10;94.30
24402;DHT22;12539;48.808;11.292;2023-08-01T04:07:52;19.00;94.50
24402;DHT22;12539;48.808;11.292;2023-08-01T04:10:20;19.00;94.70
24402;DHT22;12539;48.808;11.292;2023-08-01T04:12:46;19.00;94.80
24402;DHT22;12539;48.808;11.292;2023-08-01T04:15:11;19.00;94.80
24402;DHT22;12539;48.808;11.292;2023-08-01T04:17:37;19.00;94.80
24402;DHT22;12539;48.808;11.292;2023-08-01T04:20:02;19.10;94.90
24402;DHT22;12539;48.808;11.292;2023-08-01T04:22:28;19.10;94.90
24402;DHT22;12539;48.808;11.292;2023-08-01T04:24:53;19.10;94.80
24402;DHT22;12539;48.808;11.292;2023-08-01T04:27:19;19.20;94.70
24402;DHT22;12539;48.808;11.292;2023-08-01T04:29:45;19.20;95.00
24402;DHT22;12539;48.808;11.292;2023-08-01T04:32:10;19.30;94.60
24402;DHT22;12539;48.808;11.292;2023-08-01T04:34:39;19.40;94.60
24402;DHT22;12539;48.808;11.292;2023-08-01T04:37:04;19.40;94.50
24402;DHT22;12539;48.808;11.292;2023-08-01T04:39:30;19.40;94.50
24402;DHT22;12539;48.808;11.292;2023-08-01T04:41:55;19.40;94.60
24402;DHT22;12539;48.808;11.292;2023-08-01T04:44:21;19.40;94.70
24402;DHT22;12539;48.808;11.292;2023-08-01T04:46:47;19.40;94.80
24402;DHT22;12539;48.808;11.292;2023-08-01T04:49:13;19.40;94.80
24402;DHT22;12539;48.808;11.292;2023-08-01T04:51:38;19.40;94.80
24402;DHT22;12539;48.808;11.292;2023-08-01T04:54:04;19.50;94.90
24402;DHT22;12539;48.808;11.292;2023-08-01T04:56:29;19.40;94.90
24402;DHT22;12539;48.808;11.292;2023-08-01T04:58:55;19.50;95.00
24402;DHT22;12539;48.808;11.292;2023-08-01T05:01:20;19.50;95.00
24402;DHT22;12539;48.808;11.292;2023-08-01T05:03:46;19.50;95.10
24402;DHT22;12539;48.808;11.292;2023-08-01T05:06:11;19.50;95.10
24402;DHT22;12539;48.808;11.292;2023-08-01T05:08:37;19.50;95.00
24402;DHT22;12539;48.808;11.292;2023-08-01T05:11:02;19.50;95.10
24402;DHT22;12539;48.808;11.292;2023-08-01T05:13:28;19.50;95.00
24402;DHT22;12539;48.808;11.292;2023-08-01T05:15:54;19.60;95.10
24402;DHT22;12539;48.808;11.292;2023-08-01T05:18:19;19.60;94.90
24402;DHT22;12539;48.808;11.292;2023-08-01T05:23:29;19.70;94.80
24402;DHT22;12539;48.808;11.292;2023-08-01T05:25:54;19.70;94.70
24402;DHT22;12539;48.808;11.292;2023-08-01T05:28:20;19.70;94.60
24402;DHT22;12539;48.808;11.292;2023-08-01T05:30:46;19.70;94.70
24402;DHT22;12539;48.808;11.292;2023-08-01T05:33:12;19.70;94.80
24402;DHT22;12539;48.808;11.292;2023-08-01T05:35:37;19.70;94.80
24402;DHT22;12539;48.808;11.292;2023-08-01T05:38:03;19.70;94.80
24402;DHT22;12539;48.808;11.292;2023-08-01T05:40:28;19.80;94.80
24402;DHT22;12539;48.808;11.292;2023-08-01T05:42:54;19.80;94.80
24402;DHT22;12539;48.808;11.292;2023-08-01T05:45:20;19.90;94.80
24402;DHT22;12539;48.808;11.292;2023-08-01T05:47:45;19.90;94.80
24402;DHT22;12539;48.808;11.292;2023-08-01T05:50:11;19.90;94.90
24402;DHT22;12539;48.808;11.292;2023-08-01T05:52:37;19.80;95.00
24402;DHT22;12539;48.808;11.292;2023-08-01T05:55:02;19.70;95.00
24402;DHT22;12539;48.808;11.292;2023-08-01T05:57:28;19.70;95.70
24402;DHT22;12539;48.808;11.292;2023-08-01T05:59:54;19.60;95.50
24402;DHT22;12539;48.808;11.292;2023-08-01T06:02:20;19.60;95.70
24402;DHT22;12539;48.808;11.292;2023-08-01T06:04:45;19.60;95.80
24402;DHT22;12539;48.808;11.292;2023-08-01T06:07:11;19.70;95.80
24402;DHT22;12539;48.808;11.292;2023-08-01T06:09:36;19.70;95.80
24402;DHT22;12539;48.808;11.292;2023-08-01T06:12:02;19.80;95.80
24402;DHT22;12539;48.808;11.292;2023-08-01T06:14:28;19.80;95.80
24402;DHT22;12539;48.808;11.292;2023-08-01T06:16:53;19.80;95.80
24402;DHT22;12539;48.808;11.292;2023-08-01T06:19:19;19.90;95.70
24402;DHT22;12539;48.808;11.292;2023-08-01T06:21:44;19.90;95.80
24402;DHT22;12539;48.808;11.292;2023-08-01T06:24:12;19.90;95.80
24402;DHT22;12539;48.808;11.292;2023-08-01T06:26:37;20.00;95.80
24402;DHT22;12539;48.808;11.292;2023-08-01T06:29:03;20.00;95.60
24402;DHT22;12539;48.808;11.292;2023-08-01T06:31:28;20.00;95.50
24402;DHT22;12539;48.808;11.292;2023-08-01T06:33:54;20.00;95.50
24402;DHT22;12539;48.808;11.292;2023-08-01T06:36:20;20.00;95.50
24402;DHT22;12539;48.808;11.292;2023-08-01T06:38:47;20.10;95.40
24402;DHT22;12539;48.808;11.292;2023-08-01T06:41:13;20.10;95.40
24402;DHT22;12539;48.808;11.292;2023-08-01T06:43:38;20.10;95.40
24402;DHT22;12539;48.808;11.292;2023-08-01T06:46:04;20.20;95.40
24402;DHT22;12539;48.808;11.292;2023-08-01T06:48:30;20.30;95.40
24402;DHT22;12539;48.808;11.292;2023-08-01T06:50:56;20.40;95.70
24402;DHT22;12539;48.808;11.292;2023-08-01T06:53:22;20.50;95.20
24402;DHT22;12539;48.808;11.292;2023-08-01T06:55:47;20.60;95.00
24402;DHT22;12539;48.808;11.292;2023-08-01T06:58:13;20.70;94.80
24402;DHT22;12539;48.808;11.292;2023-08-01T07:00:38;20.90;94.70
24402;DHT22;12539;48.808;11.292;2023-08-01T07:03:04;21.10;94.40
24402;DHT22;12539;48.808;11.292;2023-08-01T07:05:29;21.20;94.10
24402;DHT22;12539;48.808;11.292;2023-08-01T07:07:55;21.30;93.90
24402;DHT22;12539;48.808;11.292;2023-08-01T07:10:21;21.30;93.80
24402;DHT22;12539;48.808;11.292;2023-08-01T07:12:47;21.40;93.60
24402;DHT22;12539;48.808;11.292;2023-08-01T07:15:13;21.60;93.40
24402;DHT22;12539;48.808;11.292;2023-08-01T07:17:39;21.90;93.30
24402;DHT22;12539;48.808;11.292;2023-08-01T07:20:04;22.30;92.80
24402;DHT22;12539;48.808;11.292;2023-08-01T07:22:30;22.90;91.90
24402;DHT22;12539;48.808;11.292;2023-08-01T07:24:56;23.30;90.80
24402;DHT22;12539;48.808;11.292;2023-08-01T07:27:22;23.50;90.40
24402;DHT22;12539;48.808;11.292;2023-08-01T07:29:48;23.60;90.10
24402;DHT22;12539;48.808;11.292;2023-08-01T07:32:14;23.70;89.40
24402;DHT22;12539;48.808;11.292;2023-08-01T07:34:39;23.70;88.60
24402;DHT22;12539;48.808;11.292;2023-08-01T07:37:05;23.60;88.10
24402;DHT22;12539;48.808;11.292;2023-08-01T07:39:30;23.60;87.10
24402;DHT22;12539;48.808;11.292;2023-08-01T07:41:56;23.40;87.30
24402;DHT22;12539;48.808;11.292;2023-08-01T07:44:22;23.20;87.20
24402;DHT22;12539;48.808;11.292;2023-08-01T07:46:47;23.00;87.50
24402;DHT22;12539;48.808;11.292;2023-08-01T07:49:16;22.80;87.80
24402;DHT22;12539;48.808;11.292;2023-08-01T07:51:42;22.50;87.80
24402;DHT22;12539;48.808;11.292;2023-08-01T07:54:07;22.30;88.50
24402;DHT22;12539;48.808;11.292;2023-08-01T07:56:33;22.10;89.10
24402;DHT22;12539;48.808;11.292;2023-08-01T07:58:59;22.00;89.70
24402;DHT22;12539;48.808;11.292;2023-08-01T08:01:24;21.90;90.00
24402;DHT22;12539;48.808;11.292;2023-08-01T08:03:50;21.80;90.10
24402;DHT22;12539;48.808;11.292;2023-08-01T08:06:15;21.80;90.30
24402;DHT22;12539;48.808;11.292;2023-08-01T08:08:41;21.70;90.30
24402;DHT22;12539;48.808;11.292;2023-08-01T08:11:07;21.70;90.40
24402;DHT22;12539;48.808;11.292;2023-08-01T08:13:32;21.60;90.40
24402;DHT22;12539;48.808;11.292;2023-08-01T08:15:58;21.60;90.40
24402;DHT22;12539;48.808;11.292;2023-08-01T08:18:23;21.60;90.50
24402;DHT22;12539;48.808;11.292;2023-08-01T08:20:49;21.50;90.40
24402;DHT22;12539;48.808;11.292;2023-08-01T08:23:16;21.40;90.30
24402;DHT22;12539;48.808;11.292;2023-08-01T08:25:42;21.20;90.30
24402;DHT22;12539;48.808;11.292;2023-08-01T08:28:11;21.20;90.20
24402;DHT22;12539;48.808;11.292;2023-08-01T08:30:36;21.10;90.40
24402;DHT22;12539;48.808;11.292;2023-08-01T08:33:02;21.00;90.50
24402;DHT22;12539;48.808;11.292;2023-08-01T08:35:30;21.00;90.70
24402;DHT22;12539;48.808;11.292;2023-08-01T08:37:58;21.00;90.80
24402;DHT22;12539;48.808;11.292;2023-08-01T08:40:24;21.00;90.90
24402;DHT22;12539;48.808;11.292;2023-08-01T08:42:49;21.10;90.90
24402;DHT22;12539;48.808;11.292;2023-08-01T08:45:18;21.10;90.90
24402;DHT22;12539;48.808;11.292;2023-08-01T08:47:44;21.10;90.80
24402;DHT22;12539;48.808;11.292;2023-08-01T08:50:10;21.10;90.80
24402;DHT22;12539;48.808;11.292;2023-08-01T08:52:35;21.00;90.90
24402;DHT22;12539;48.808;11.292;2023-08-01T08:55:01;20.90;91.00
24402;DHT22;12539;48.808;11.292;2023-08-01T08:57:28;20.90;91.10
24402;DHT22;12539;48.808;11.292;2023-08-01T08:59:55;20.90;91.30
24402;DHT22;12539;48.808;11.292;2023-08-01T09:02:21;20.80;91.50
24402;DHT22;12539;48.808;11.292;2023-08-01T09:04:47;20.70;92.00
24402;DHT22;12539;48.808;11.292;2023-08-01T09:07:13;20.50;92.90
24402;DHT22;12539;48.808;11.292;2023-08-01T09:09:39;20.30;93.50
24402;DHT22;12539;48.808;11.292;2023-08-01T09:12:05;20.00;93.90
24402;DHT22;12539;48.808;11.292;2023-08-01T09:14:31;19.90;94.70
24402;DHT22;12539;48.808;11.292;2023-08-01T09:17:05;19.80;95.30
24402;DHT22;12539;48.808;11.292;2023-08-01T09:19:31;19.60;95.80
24402;DHT22;12539;48.808;11.292;2023-08-01T09:24:22;19.60;96.50
24402;DHT22;12539;48.808;11.292;2023-08-01T09:26:48;19.60;97.20
24402;DHT22;12539;48.808;11.292;2023-08-01T09:29:17;19.60;97.70
24402;DHT22;12539;48.808;11.292;2023-08-01T09:31:46;19.50;98.20
24402;DHT22;12539;48.808;11.292;2023-08-01T09:34:20;19.60;98.20
24402;DHT22;12539;48.808;11.292;2023-08-01T09:36:46;19.50;98.40
24402;DHT22;12539;48.808;11.292;2023-08-01T09:39:18;19.40;98.50
24402;DHT22;12539;48.808;11.292;2023-08-01T09:41:44;19.30;98.90
24402;DHT22;12539;48.808;11.292;2023-08-01T09:44:11;19.20;99.60
24402;DHT22;12539;48.808;11.292;2023-08-01T09:46:37;19.20;99.90
24402;DHT22;12539;48.808;11.292;2023-08-01T09:49:07;19.30;99.90
24402;DHT22;12539;48.808;11.292;2023-08-01T09:51:33;19.30;99.80
24402;DHT22;12539;48.808;11.292;2023-08-01T09:53:58;19.30;99.80
24402;DHT22;12539;48.808;11.292;2023-08-01T09:56:25;19.30;99.80
24402;DHT22;12539;48.808;11.292;2023-08-01T09:58:52;19.20;99.60
24402;DHT22;12539;48.808;11.292;2023-08-01T10:01:18;19.00;99.90
24402;DHT22;12539;48.808;11.292;2023-08-01T10:03:47;18.90;99.90
24402;DHT22;12539;48.808;11.292;2023-08-01T10:06:14;18.90;99.90
24402;DHT22;12539;48.808;11.292;2023-08-01T10:08:42;18.90;99.90
24402;DHT22;12539;48.808;11.292;2023-08-01T10:11:08;18.90;99.90
24402;DHT22;12539;48.808;11.292;2023-08-01T10:13:33;18.90;99.90
24402;DHT22;12539;48.808;11.292;2023-08-01T10:15:59;19.00;99.90
24402;DHT22;12539;48.808;11.292;2023-08-01T10:18:26;19.10;99.90
24402;DHT22;12539;48.808;11.292;2023-08-01T10:20:53;19.30;99.90
24402;DHT22;12539;48.808;11.292;2023-08-01T10:23:19;19.50;99.90
24402;DHT22;12539;48.808;11.292;2023-08-01T10:25:45;19.60;99.90
24402;DHT22;12539;48.808;11.292;2023-08-01T10:28:10;19.70;99.90
24402;DHT22;12539;48.808;11.292;2023-08-01T10:30:36;20.00;99.90
24402;DHT22;12539;48.808;11.292;2023-08-01T10:33:02;20.20;99.90
24402;DHT22;12539;48.808;11.292;2023-08-01T10:35:31;20.30;99.90
24402;DHT22;12539;48.808;11.292;2023-08-01T10:38:03;20.40;99.50
24402;DHT22;12539;48.808;11.292;2023-08-01T10:40:32;20.40;99.30
24402;DHT22;12539;48.808;11.292;2023-08-01T10:42:59;20.50;99.30
24402;DHT22;12539;48.808;11.292;2023-08-01T10:45:25;20.60;98.70
24402;DHT22;12539;48.808;11.292;2023-08-01T10:47:52;20.50;98.20
24402;DHT22;12539;48.808;11.292;2023-08-01T10:50:18;20.50;97.90
24402;DHT22;12539;48.808;11.292;2023-08-01T10:52:43;20.40;98.00
24402;DHT22;12539;48.808;11.292;2023-08-01T10:55:55;20.30;97.80
24402;DHT22;12539;48.808;11.292;2023-08-01T10:58:14;20.20;98.00
24402;DHT22;12539;48.808;11.292;2023-08-01T11:00:43;20.10;98.20
24402;DHT22;12539;48.808;11.292;2023-08-01T11:03:09;19.90;98.40
24402;DHT22;12539;48.808;11.292;2023-08-01T11:05:35;19.80;98.70
24402;DHT22;12539;48.808;11.292;2023-08-01T11:08:01;19.60;98.90
24402;DHT22;12539;48.808;11.292;2023-08-01T11:10:28;19.60;99.10
24402;DHT22;12539;48.808;11.292;2023-08-01T11:12:54;19.50;99.60
24402;DHT22;12539;48.808;11.292;2023-08-01T11:15:20;19.60;99.90
24402;DHT22;12539;48.808;11.292;2023-08-01T11:17:49;19.80;99.90
24402;DHT22;12539;48.808;11.292;2023-08-01T11:20:15;20.10;99.90
24402;DHT22;12539;48.808;11.292;2023-08-01T11:25:16;20.60;99.60
24402;DHT22;12539;48.808;11.292;2023-08-01T11:27:41;20.70;98.80
24402;DHT22;12539;48.808;11.292;2023-08-01T11:30:52;20.70;98.20
24402;DHT22;12539;48.808;11.292;2023-08-01T11:32:53;20.60;98.20
24402;DHT22;12539;48.808;11.292;2023-08-01T11:35:19;20.40;98.20
24402;DHT22;12539;48.808;11.292;2023-08-01T11:37:50;20.20;98.00
24402;DHT22;12539;48.808;11.292;2023-08-01T11:40:17;19.90;98.80
24402;DHT22;12539;48.808;11.292;2023-08-01T11:42:43;19.70;99.30
24402;DHT22;12539;48.808;11.292;2023-08-01T11:45:09;19.60;99.80
24402;DHT22;12539;48.808;11.292;2023-08-01T11:47:35;19.60;99.90
24402;DHT22;12539;48.808;11.292;2023-08-01T11:50:00;19.50;99.90
24402;DHT22;12539;48.808;11.292;2023-08-01T11:52:26;19.50;99.90
24402;DHT22;12539;48.808;11.292;2023-08-01T11:54:52;19.50;99.90
24402;DHT22;12539;48.808;11.292;2023-08-01T11:57:22;19.60;99.90
24402;DHT22;12539;48.808;11.292;2023-08-01T11:59:52;19.70;99.90
24402;DHT22;12539;48.808;11.292;2023-08-01T12:02:24;19.90;99.90
24402;DHT22;12539;48.808;11.292;2023-08-01T12:04:50;20.00;99.90
24402;DHT22;12539;48.808;11.292;2023-08-01T12:07:16;20.10;99.90
24402;DHT22;12539;48.808;11.292;2023-08-01T12:09:42;20.20;99.90
24402;DHT22;12539;48.808;11.292;2023-08-01T12:12:08;20.30;99.90
24402;DHT22;12539;48.808;11.292;2023-08-01T12:14:41;20.20;99.90
24402;DHT22;12539;48.808;11.292;2023-08-01T12:17:06;20.20;99.90
24402;DHT22;12539;48.808;11.292;2023-08-01T12:19:32;20.30;99.90
24402;DHT22;12539;48.808;11.292;2023-08-01T12:21:59;20.40;99.90
24402;DHT22;12539;48.808;11.292;2023-08-01T12:24:24;20.60;99.90
24402;DHT22;12539;48.808;11.292;2023-08-01T12:26:50;20.80;99.90
24402;DHT22;12539;48.808;11.292;2023-08-01T12:29:15;20.90;99.90
24402;DHT22;12539;48.808;11.292;2023-08-01T12:31:41;21.00;99.60
24402;DHT22;12539;48.808;11.292;2023-08-01T12:34:07;21.10;99.10
24402;DHT22;12539;48.808;11.292;2023-08-01T12:36:32;21.10;98.50
24402;DHT22;12539;48.808;11.292;2023-08-01T12:38:58;21.10;99.10
24402;DHT22;12539;48.808;11.292;2023-08-01T12:41:23;21.20;99.00
24402;DHT22;12539;48.808;11.292;2023-08-01T12:43:49;21.40;98.40
24402;DHT22;12539;48.808;11.292;2023-08-01T12:46:15;21.50;97.90
24402;DHT22;12539;48.808;11.292;2023-08-01T12:48:40;21.60;98.10
24402;DHT22;12539;48.808;11.292;2023-08-01T12:51:06;21.90;97.90
24402;DHT22;12539;48.808;11.292;2023-08-01T12:53:32;22.10;97.60
24402;DHT22;12539;48.808;11.292;2023-08-01T12:55:57;22.10;96.30
24402;DHT22;12539;48.808;11.292;2023-08-01T12:58:23;22.20;96.40
24402;DHT22;12539;48.808;11.292;2023-08-01T13:00:48;22.30;96.20
24402;DHT22;12539;48.808;11.292;2023-08-01T13:03:14;22.40;95.70
24402;DHT22;12539;48.808;11.292;2023-08-01T13:05:40;22.40;94.90
24402;DHT22;12539;48.808;11.292;2023-08-01T13:08:06;22.30;94.80
24402;DHT22;12539;48.808;11.292;2023-08-01T13:10:32;22.30;95.20
24402;DHT22;12539;48.808;11.292;2023-08-01T13:12:57;22.30;95.30
24402;DHT22;12539;48.808;11.292;2023-08-01T13:15:23;22.40;95.20
24402;DHT22;12539;48.808;11.292;2023-08-01T13:17:49;22.50;94.70
24402;DHT22;12539;48.808;11.292;2023-08-01T13:20:15;22.60;94.60
24402;DHT22;12539;48.808;11.292;2023-08-01T13:22:41;22.80;94.40
24402;DHT22;12539;48.808;11.292;2023-08-01T13:25:07;22.90;94.00
24402;DHT22;12539;48.808;11.292;2023-08-01T13:27:34;22.80;92.90
24402;DHT22;12539;48.808;11.292;2023-08-01T13:29:59;22.60;93.30
24402;DHT22;12539;48.808;11.292;2023-08-01T13:32:25;22.40;93.50
24402;DHT22;12539;48.808;11.292;2023-08-01T13:34:50;22.20;93.60
24402;DHT22;12539;48.808;11.292;2023-08-01T13:37:16;22.10;93.90
24402;DHT22;12539;48.808;11.292;2023-08-01T13:39:41;22.10;94.50
24402;DHT22;12539;48.808;11.292;2023-08-01T13:42:07;22.20;94.40
24402;DHT22;12539;48.808;11.292;2023-08-01T13:44:32;22.10;94.20
24402;DHT22;12539;48.808;11.292;2023-08-01T13:46:58;22.00;94.60
24402;DHT22;12539;48.808;11.292;2023-08-01T13:49:24;21.90;94.50
24402;DHT22;12539;48.808;11.292;2023-08-01T13:51:49;21.80;94.60
24402;DHT22;12539;48.808;11.292;2023-08-01T13:54:15;21.80;94.70
24402;DHT22;12539;48.808;11.292;2023-08-01T13:56:40;21.80;94.90
24402;DHT22;12539;48.808;11.292;2023-08-01T13:59:06;21.70;95.00
24402;DHT22;12539;48.808;11.292;2023-08-01T14:01:32;21.70;95.00
24402;DHT22;12539;48.808;11.292;2023-08-01T14:03:57;21.70;95.10
24402;DHT22;12539;48.808;11.292;2023-08-01T14:06:23;21.70;95.10
24402;DHT22;12539;48.808;11.292;2023-08-01T14:08:48;21.70;95.10
24402;DHT22;12539;48.808;11.292;2023-08-01T14:11:14;21.80;95.20
24402;DHT22;12539;48.808;11.292;2023-08-01T14:13:39;21.80;94.70
24402;DHT22;12539;48.808;11.292;2023-08-01T14:16:05;21.80;94.90
24402;DHT22;12539;48.808;11.292;2023-08-01T14:18:30;21.80;94.50
24402;DHT22;12539;48.808;11.292;2023-08-01T14:20:56;21.80;94.20
24402;DHT22;12539;48.808;11.292;2023-08-01T14:23:22;21.80;94.20
24402;DHT22;12539;48.808;11.292;2023-08-01T14:28:32;21.80;93.30
24402;DHT22;12539;48.808;11.292;2023-08-01T14:31:01;21.80;92.50
24402;DHT22;12539;48.808;11.292;2023-08-01T14:33:27;21.80;91.30
24402;DHT22;12539;48.808;11.292;2023-08-01T14:35:53;21.80;90.30
24402;DHT22;12539;48.808;11.292;2023-08-01T14:38:19;21.80;89.40
24402;DHT22;12539;48.808;11.292;2023-08-01T14:40:44;21.80;89.30
24402;DHT22;12539;48.808;11.292;2023-08-01T14:43:10;21.80;89.20
24402;DHT22;12539;48.808;11.292;2023-08-01T14:45:39;21.80;88.30
24402;DHT22;12539;48.808;11.292;2023-08-01T14:48:05;21.80;88.10
24402;DHT22;12539;48.808;11.292;2023-08-01T14:50:31;21.80;87.90
24402;DHT22;12539;48.808;11.292;2023-08-01T14:52:57;21.90;87.10
24402;DHT22;12539;48.808;11.292;2023-08-01T14:55:22;21.90;85.80
24402;DHT22;12539;48.808;11.292;2023-08-01T14:57:48;21.90;86.00
24402;DHT22;12539;48.808;11.292;2023-08-01T15:00:14;21.90;84.70
24402;DHT22;12539;48.808;11.292;2023-08-01T15:02:40;21.90;82.90
24402;DHT22;12539;48.808;11.292;2023-08-01T15:05:06;21.90;82.70
24402;DHT22;12539;48.808;11.292;2023-08-01T15:07:31;21.90;82.90
24402;DHT22;12539;48.808;11.292;2023-08-01T15:09:57;21.90;81.80
24402;DHT22;12539;48.808;11.292;2023-08-01T15:12:22;22.00;81.50
24402;DHT22;12539;48.808;11.292;2023-08-01T15:14:50;22.00;81.70
24402;DHT22;12539;48.808;11.292;2023-08-01T15:17:16;22.00;81.10